»·PEaware :: N6186T KVCV-KBFL

N6186T :: KVCV-KBFL

FLIGHT INFORMATION

Flight Status: Arrived
Operator: Privately registered:
United States
More flights under this callsign
Pilot: Anonymous 30170 (30170)
Aircraft: CESSNA 172 SKYHAWK
(C172)
More flights by this aircraft type
Origin: KVCV Socal Logistics
United States
Destination: KBFL Meadows
United States
More flights between these airports :: More routes between these airports
Route: +KVCV ZOREN V386 PMD V197 MINGI KBFL
File this flight plan on PilotEdge
Remarks:
Altitude:
(Current/Filed)
10,000ft
Speed:
(Current/Filed)
110kts
Departed: 14-Sep-20 01:18 PM
Arrived: 14-Sep-20 02:18 PM
Distance/Time
Traveled:
96nm/1:00
Distance/Time
To Go:
Arrived

Flight Plot

Page will automatically refresh every two minutes.

Flight plan parsing failed; only flown route is shown


Map Options




Map Legend


Flown Route
Filed Route
Departure Airport
Arrival Airport
Navaid (VOR, NDB)
Fix

Horizontal Profiles

Position Reports

Time Latitude Longitude Heading Altitude Ground
Speed
14-Sep-20 13:01 34.588332 -117.376340 313 2888ft 0kts
14-Sep-20 13:02 34.588332 -117.376340 313 2888ft 0kts
14-Sep-20 13:03 34.588332 -117.376340 313 2888ft 0kts
14-Sep-20 13:04 34.588332 -117.376340 313 2888ft 0kts
14-Sep-20 13:05 34.588337 -117.376346 313 2888ft 0kts
14-Sep-20 13:06 34.588337 -117.376346 313 2888ft 0kts
14-Sep-20 13:07 34.588337 -117.376346 313 2888ft 0kts
14-Sep-20 13:08 34.588337 -117.376346 313 2888ft 0kts
14-Sep-20 13:09 34.588515 -117.376604 306 2888ft 9kts
14-Sep-20 13:10 34.592532 -117.373227 43 2888ft 33kts
14-Sep-20 13:11 34.592972 -117.368122 18 2888ft 0kts
14-Sep-20 13:12 34.592971 -117.368123 19 2888ft 0kts
14-Sep-20 13:13 34.595418 -117.367480 10 2888ft 21kts
14-Sep-20 13:14 34.599143 -117.366591 6 2888ft 0kts
14-Sep-20 13:15 34.599143 -117.366591 6 2888ft 0kts
14-Sep-20 13:16 34.599143 -117.366591 6 2888ft 0kts
14-Sep-20 13:17 34.598029 -117.369555 224 2888ft 68kts
14-Sep-20 13:18 34.582033 -117.391510 249 3776ft 89kts
14-Sep-20 13:19 34.580797 -117.423010 273 4648ft 98kts
14-Sep-20 13:20 34.582152 -117.457601 274 5443ft 102kts
14-Sep-20 13:21 34.584583 -117.493170 276 6091ft 103kts
14-Sep-20 13:22 34.587788 -117.531051 275 6039ft 115kts
14-Sep-20 13:23 34.592771 -117.568372 285 6017ft 104kts
14-Sep-20 13:24 34.596766 -117.603544 270 6018ft 103kts
14-Sep-20 13:25 34.597047 -117.638518 269 6432ft 105kts
14-Sep-20 13:26 34.595341 -117.676196 267 7153ft 112kts
14-Sep-20 13:27 34.595126 -117.714939 274 7862ft 112kts
14-Sep-20 13:28 34.598376 -117.753100 274 8571ft 110kts
14-Sep-20 13:29 34.601186 -117.788780 275 9265ft 97kts
14-Sep-20 13:30 34.606076 -117.819426 283 9951ft 82kts
14-Sep-20 13:31 34.614391 -117.853513 284 9995ft 110kts
14-Sep-20 13:32 34.622655 -117.889645 282 9997ft 110kts
14-Sep-20 13:33 34.626983 -117.926845 270 9999ft 109kts
14-Sep-20 13:34 34.627925 -117.964235 266 10001ft 109kts
14-Sep-20 13:35 34.627839 -118.001621 267 10003ft 109kts
14-Sep-20 13:36 34.630493 -118.038997 274 10006ft 110kts
14-Sep-20 13:37 34.642891 -118.072122 314 10008ft 112kts
14-Sep-20 13:38 34.665207 -118.099056 314 10009ft 112kts
14-Sep-20 13:40 34.687639 -118.126128 314 10008ft 113kts
14-Sep-20 13:41 34.710044 -118.153478 313 10007ft 113kts
14-Sep-20 13:42 34.732249 -118.181163 313 10004ft 113kts
14-Sep-20 13:43 34.754449 -118.208848 313 10001ft 113kts
14-Sep-20 13:44 34.776602 -118.236468 314 9999ft 113kts
14-Sep-20 13:45 34.798449 -118.264673 314 9972ft 110kts
14-Sep-20 13:46 34.819144 -118.292414 313 9972ft 109kts
14-Sep-20 13:47 34.839613 -118.319917 313 9972ft 108kts
14-Sep-20 13:48 34.860090 -118.347428 313 9981ft 107kts
14-Sep-20 13:49 34.880652 -118.374447 315 9995ft 107kts
14-Sep-20 13:50 34.901700 -118.400789 315 10016ft 107kts
14-Sep-20 13:51 34.923121 -118.427141 316 10036ft 108kts
14-Sep-20 13:52 34.945152 -118.453396 316 10052ft 109kts
14-Sep-20 13:53 34.967497 -118.479722 316 10065ft 111kts
14-Sep-20 13:54 34.990223 -118.506150 316 10075ft 112kts
14-Sep-20 13:55 35.013357 -118.532726 316 10081ft 113kts
14-Sep-20 13:56 35.036793 -118.559349 316 10083ft 114kts
14-Sep-20 13:57 35.052558 -118.591211 292 10236ft 101kts
14-Sep-20 13:57 35.063162 -118.618832 292 10234ft 109kts
14-Sep-20 13:58 35.077780 -118.657493 291 9723ft 136kts
14-Sep-20 13:59 35.093937 -118.700288 291 9005ft 129kts
14-Sep-20 14:01 35.111586 -118.746193 291 8171ft 125kts
14-Sep-20 14:01 35.124180 -118.778553 291 7572ft 123kts
14-Sep-20 14:02 35.139018 -118.816780 292 6857ft 122kts
14-Sep-20 14:03 35.153746 -118.854637 292 6090ft 119kts
14-Sep-20 14:04 35.167851 -118.891133 292 5274ft 116kts
14-Sep-20 14:05 35.196632 -118.887487 31 4449ft 120kts
14-Sep-20 14:06 35.225829 -118.873255 342 3626ft 112kts
14-Sep-20 14:07 35.256100 -118.883653 342 2815ft 111kts
14-Sep-20 14:08 35.283605 -118.893053 342 2523ft 86kts
14-Sep-20 14:09 35.304357 -118.903934 313 2525ft 75kts
14-Sep-20 14:10 35.319729 -118.921241 315 2535ft 79kts
14-Sep-20 14:11 35.339779 -118.942917 316 2528ft 101kts
14-Sep-20 14:12 35.360650 -118.967495 313 2600ft 88kts
14-Sep-20 14:13 35.376299 -118.986359 310 2300ft 81kts
14-Sep-20 14:14 35.393009 -119.006909 311 1654ft 83kts
14-Sep-20 14:15 35.409931 -119.027048 311 1161ft 79kts
14-Sep-20 14:16 35.426150 -119.046818 312 707ft 81kts
14-Sep-20 14:17 35.435972 -119.058415 22 509ft 0kts
14-Sep-20 14:18 35.434607 -119.054739 140 509ft 31kts
14-Sep-20 14:19 35.430696 -119.049411 58 509ft 3kts
14-Sep-20 14:20 35.428859 -119.046096 43 509ft 10kts
14-Sep-20 14:21 35.428985 -119.045851 62 509ft 0kts
14-Sep-20 14:22 35.428985 -119.045851 62 509ft 0kts
14-Sep-20 14:23 35.428985 -119.045851 62 509ft 0kts
14-Sep-20 14:24 35.428985 -119.045851 62 509ft 0kts

Navigation Log

Ident Type
Flight plan parsing failed, navigation log unavailable